createdAt,value
2022-12-05T00:00:34.145Z,12.65
2022-12-05T00:03:06.502Z,12.27
2022-12-05T00:05:36.037Z,12.32
2022-12-05T00:08:08.121Z,11.23
2022-12-05T00:10:38.875Z,11.50
2022-12-05T00:13:08.347Z,10.55
2022-12-05T00:15:39.596Z,10.13
2022-12-05T00:18:09.049Z,10.77
2022-12-05T00:20:38.502Z,10.55
2022-12-05T00:23:10.504Z,10.88
2022-12-05T00:25:39.923Z,10.48
2022-12-05T00:28:09.378Z,9.95
2022-12-05T00:30:38.835Z,9.50
2022-12-05T00:33:08.258Z,9.07
2022-12-05T00:35:37.755Z,8.93
2022-12-05T00:38:09.760Z,7.55
2022-12-05T00:40:39.453Z,7.32
2022-12-05T00:43:08.893Z,7.65
2022-12-05T00:45:38.407Z,7.78
2022-12-05T00:48:08.558Z,7.65
2022-12-05T00:50:38.000Z,7.53
2022-12-05T00:53:10.051Z,7.80
2022-12-05T00:55:39.651Z,8.25
2022-12-05T00:58:09.087Z,7.55
2022-12-05T01:00:38.546Z,7.55
2022-12-05T01:03:08.041Z,7.65
2022-12-05T01:05:37.588Z,7.82
2022-12-05T01:08:09.882Z,7.75
2022-12-05T01:10:39.397Z,7.50
2022-12-05T01:13:08.879Z,7.28
2022-12-05T01:15:39.802Z,7.60
2022-12-05T01:18:09.260Z,8.18
2022-12-05T01:20:41.739Z,8.52
2022-12-05T01:23:13.889Z,9.00
2022-12-05T01:25:43.559Z,8.30
2022-12-05T01:28:13.388Z,8.57
2022-12-05T01:30:43.124Z,8.98
2022-12-05T01:33:12.750Z,8.93
2022-12-05T01:35:42.861Z,8.40
2022-12-05T01:38:15.492Z,9.03
2022-12-05T01:40:45.061Z,7.93
2022-12-05T01:43:17.632Z,7.70
2022-12-05T01:45:47.940Z,7.70
2022-12-05T01:48:19.312Z,7.47
2022-12-05T01:50:48.949Z,7.88
2022-12-05T01:53:21.336Z,7.30
2022-12-05T01:55:51.528Z,7.18
2022-12-05T01:58:21.080Z,7.10
2022-12-05T02:00:50.638Z,7.00
2022-12-05T02:03:21.045Z,7.03
2022-12-05T02:05:51.531Z,7.10
2022-12-05T02:08:23.683Z,6.78
2022-12-05T02:10:54.276Z,7.03
2022-12-05T02:13:36.601Z,6.95
2022-12-05T02:16:08.527Z,7.20
2022-12-05T02:18:45.690Z,6.50
2022-12-05T02:21:51.030Z,7.22
2022-12-05T02:24:43.191Z,6.90
2022-12-05T02:27:22.183Z,7.07
2022-12-05T02:29:59.305Z,6.70
2022-12-05T02:32:37.091Z,7.50
2022-12-05T02:35:10.548Z,7.13
2022-12-05T02:37:43.028Z,7.53
2022-12-05T02:40:13.691Z,8.00
2022-12-05T02:42:45.942Z,7.85
2022-12-05T02:45:18.912Z,7.93
2022-12-05T02:47:51.619Z,7.28
2022-12-05T02:50:23.653Z,7.60
2022-12-05T02:52:54.178Z,8.00
2022-12-05T02:55:23.647Z,7.97
2022-12-05T02:57:55.418Z,7.82
2022-12-05T03:00:27.526Z,8.18
2022-12-05T03:02:58.925Z,8.60
2022-12-05T03:05:34.358Z,8.18
2022-12-05T03:08:03.998Z,8.80
2022-12-05T03:10:33.709Z,7.82
2022-12-05T03:13:05.788Z,8.88
2022-12-05T03:15:39.200Z,8.05
2022-12-05T03:18:09.895Z,8.18
2022-12-05T03:20:40.426Z,7.38
2022-12-05T03:23:11.551Z,7.25
2022-12-05T03:25:44.083Z,6.88
2022-12-05T03:28:16.128Z,6.50
2022-12-05T03:30:48.190Z,6.35
2022-12-05T03:33:18.340Z,6.63
2022-12-05T03:35:48.477Z,6.30
2022-12-05T03:38:19.285Z,6.75
2022-12-05T03:40:50.484Z,6.28
2022-12-05T03:43:23.532Z,6.28
2022-12-05T03:45:57.174Z,6.68
2022-12-05T03:48:28.967Z,6.47
2022-12-05T03:50:58.487Z,6.13
2022-12-05T03:53:29.002Z,6.60
2022-12-05T03:56:01.200Z,6.70
2022-12-05T03:58:32.126Z,6.10
2022-12-05T04:01:04.403Z,6.47
2022-12-05T04:03:45.033Z,6.70
2022-12-05T04:06:20.270Z,7.28
2022-12-05T04:08:51.448Z,7.65
2022-12-05T04:11:22.744Z,6.90
2022-12-05T04:13:53.879Z,7.68
2022-12-05T04:19:10.766Z,7.07
2022-12-05T04:21:39.093Z,6.95
2022-12-05T04:24:23.101Z,7.28
2022-12-05T04:26:56.103Z,7.00
2022-12-05T04:29:29.920Z,7.05
2022-12-05T04:32:05.479Z,7.05
2022-12-05T04:34:34.997Z,7.40
2022-12-05T04:37:06.356Z,7.97
2022-12-05T04:39:37.003Z,7.88
2022-12-05T04:42:07.987Z,7.35
2022-12-05T04:44:39.120Z,7.32
2022-12-05T04:49:40.761Z,7.07
2022-12-05T04:52:10.970Z,7.32
2022-12-05T04:54:41.893Z,6.30
2022-12-05T04:57:13.271Z,6.50
2022-12-05T04:59:42.752Z,7.30
2022-12-05T05:02:16.423Z,8.10
2022-12-05T05:04:47.186Z,8.85
2022-12-05T05:07:16.715Z,9.82
2022-12-05T05:09:46.227Z,11.18
2022-12-05T05:12:18.974Z,11.05
2022-12-05T05:14:48.760Z,12.55
2022-12-05T05:17:20.936Z,11.43
2022-12-05T05:19:50.517Z,11.40
2022-12-05T05:22:19.982Z,11.68
2022-12-05T05:24:49.476Z,12.45
2022-12-05T05:27:18.968Z,13.30
2022-12-05T05:29:48.492Z,13.32
2022-12-05T05:32:20.592Z,14.10
2022-12-05T05:34:50.110Z,15.18
2022-12-05T05:37:19.629Z,17.33
2022-12-05T05:39:49.132Z,13.98
2022-12-05T05:42:18.771Z,13.35
2022-12-05T05:44:48.351Z,13.30
2022-12-05T05:47:20.550Z,12.85
2022-12-05T05:49:50.095Z,13.20
2022-12-05T05:52:19.739Z,13.27
2022-12-05T05:54:49.256Z,12.77
2022-12-05T05:57:20.517Z,12.05
2022-12-05T05:59:50.333Z,12.40
2022-12-05T06:02:22.586Z,12.93
2022-12-05T06:04:52.176Z,13.13
2022-12-05T06:07:21.793Z,12.32
2022-12-05T06:09:51.663Z,11.88
2022-12-05T06:12:21.610Z,11.63
2022-12-05T06:14:51.270Z,11.70
2022-12-05T06:17:23.563Z,11.65
2022-12-05T06:19:53.487Z,11.40
2022-12-05T06:22:23.084Z,10.82
2022-12-05T06:24:52.611Z,10.60
2022-12-05T06:27:22.240Z,10.32
2022-12-05T06:29:51.835Z,10.35
2022-12-05T06:32:24.123Z,11.18
2022-12-05T06:34:53.608Z,11.77
2022-12-05T06:37:23.217Z,12.27
2022-12-05T06:39:53.831Z,11.00
2022-12-05T06:42:23.703Z,11.52
2022-12-05T06:44:53.251Z,11.50
2022-12-05T06:47:25.453Z,11.70
2022-12-05T06:49:55.218Z,10.82
2022-12-05T06:52:25.119Z,10.77
2022-12-05T06:54:54.760Z,10.18
2022-12-05T06:57:24.301Z,10.52
2022-12-05T07:00:13.812Z,11.10
2022-12-05T07:02:43.497Z,12.30
2022-12-05T07:05:13.402Z,13.60
2022-12-05T07:07:42.975Z,13.63
2022-12-05T07:10:12.731Z,13.18
2022-12-05T07:12:42.274Z,13.20
2022-12-05T07:15:12.537Z,12.35
2022-12-05T07:17:42.266Z,11.88
2022-12-05T07:20:17.973Z,12.82
2022-12-05T07:22:48.754Z,12.43
2022-12-05T07:25:20.390Z,11.65
2022-12-05T07:27:52.335Z,11.27
2022-12-05T07:30:22.116Z,12.15
2022-12-05T07:32:51.927Z,10.85
2022-12-05T07:35:25.332Z,12.10
2022-12-05T07:38:17.497Z,11.68
2022-12-05T07:43:52.797Z,10.70
2022-12-05T07:49:27.603Z,10.52
2022-12-05T07:52:10.693Z,10.10
2022-12-05T08:01:23.525Z,10.48
2022-12-05T08:08:02.266Z,10.70
2022-12-05T08:10:42.977Z,10.60
2022-12-05T08:13:31.909Z,10.63
2022-12-05T08:19:53.353Z,10.10
2022-12-05T08:28:59.251Z,15.50
2022-12-05T08:35:00.345Z,13.45
2022-12-05T08:38:26.088Z,12.70
2022-12-05T08:41:46.291Z,12.90
2022-12-05T08:44:56.135Z,15.77
2022-12-05T08:48:04.930Z,14.20
2022-12-05T08:50:39.275Z,14.23
2022-12-05T08:53:10.089Z,14.55
2022-12-05T08:55:40.022Z,13.05
2022-12-05T08:58:11.549Z,12.30
2022-12-05T09:00:53.526Z,12.55
2022-12-05T09:03:23.362Z,12.20
2022-12-05T09:05:54.839Z,12.63
2022-12-05T09:08:24.660Z,12.77
2022-12-05T09:10:54.317Z,13.05
2022-12-05T09:13:24.252Z,13.02
2022-12-05T09:15:56.657Z,13.73
2022-12-05T09:18:26.497Z,13.02
2022-12-05T09:20:56.167Z,13.10
2022-12-05T09:23:25.835Z,10.20
2022-12-05T09:26:16.842Z,22.67
2022-12-05T09:33:04.858Z,13.65
2022-12-05T09:39:16.885Z,14.13
2022-12-05T09:42:18.767Z,13.45
2022-12-05T09:45:14.551Z,14.45
2022-12-05T09:47:51.261Z,14.05
2022-12-05T09:50:23.406Z,15.30
2022-12-05T09:53:19.184Z,12.77
2022-12-05T09:55:52.410Z,13.23
2022-12-05T09:58:34.070Z,13.43
2022-12-05T10:01:07.088Z,14.07
2022-12-05T10:03:41.877Z,13.02
2022-12-05T10:06:15.869Z,12.38
2022-12-05T10:08:57.172Z,12.90
2022-12-05T10:11:31.521Z,12.80
2022-12-05T10:14:04.753Z,12.25
2022-12-05T10:16:35.401Z,12.40
2022-12-05T10:19:06.681Z,12.68
2022-12-05T10:21:37.160Z,14.00
2022-12-05T10:24:08.031Z,14.88
2022-12-05T10:26:41.415Z,13.90
2022-12-05T10:29:15.445Z,13.20
2022-12-05T10:31:45.200Z,13.55
2022-12-05T10:34:18.250Z,14.10
2022-12-05T10:36:52.720Z,14.27
2022-12-05T10:39:25.634Z,16.02
2022-12-05T10:41:58.534Z,14.32
2022-12-05T10:44:28.246Z,14.48
2022-12-05T10:46:58.035Z,13.75
2022-12-05T10:49:27.700Z,14.18
2022-12-05T10:52:00.997Z,14.15
2022-12-05T10:54:40.005Z,15.35
2022-12-05T10:57:23.835Z,15.20
2022-12-05T10:59:53.771Z,14.45
2022-12-05T11:02:27.204Z,14.98
2022-12-05T11:04:57.194Z,14.60
2022-12-05T11:07:29.799Z,14.68
2022-12-05T11:09:59.488Z,14.48
2022-12-05T11:12:33.292Z,13.65
2022-12-05T11:15:04.946Z,13.25
2022-12-05T11:17:36.007Z,13.48
2022-12-05T11:22:37.379Z,12.25
2022-12-05T11:25:26.494Z,11.40
2022-12-05T11:28:01.492Z,11.90
2022-12-05T11:30:31.875Z,12.50
2022-12-05T11:33:14.696Z,10.70
2022-12-05T11:43:04.835Z,16.08
2022-12-05T12:29:30.489Z,10.10
2022-12-05T12:32:13.746Z,9.93
2022-12-05T12:35:04.479Z,9.48
2022-12-05T12:37:41.570Z,8.68
2022-12-05T12:40:19.187Z,8.93
2022-12-05T12:43:07.128Z,8.02
2022-12-05T12:45:56.715Z,10.30
2022-12-05T12:48:41.793Z,7.88
2022-12-05T12:51:14.772Z,7.25
2022-12-05T12:54:13.870Z,7.50
2022-12-05T13:09:22.851Z,7.97
2022-12-05T13:12:03.161Z,11.35
2022-12-05T13:14:38.385Z,14.40
2022-12-05T13:17:23.185Z,9.90
2022-12-05T13:19:53.485Z,9.70
2022-12-05T13:22:29.705Z,9.90
2022-12-05T13:25:30.139Z,9.45
2022-12-05T13:28:04.110Z,9.87
2022-12-05T13:30:54.934Z,10.23
2022-12-05T13:38:15.497Z,9.63
2022-12-05T13:41:37.211Z,8.90
2022-12-05T13:50:10.687Z,9.10
2022-12-05T13:52:45.799Z,9.13
2022-12-05T13:55:23.089Z,9.23
2022-12-05T13:57:54.619Z,8.80
2022-12-05T14:00:37.202Z,10.15
2022-12-05T14:03:08.827Z,14.77
2022-12-05T14:05:49.177Z,15.38
2022-12-05T14:09:00.345Z,10.57
2022-12-05T14:11:30.081Z,10.88
2022-12-05T14:14:04.699Z,15.38
2022-12-05T14:16:52.646Z,12.23
2022-12-05T14:19:44.593Z,13.23
2022-12-05T14:22:43.985Z,10.20
2022-12-05T14:25:20.307Z,10.30
2022-12-05T14:27:53.136Z,11.38
2022-12-05T14:30:33.861Z,9.88
2022-12-05T14:33:14.781Z,9.60
2022-12-05T14:35:46.218Z,9.48
2022-12-05T14:38:23.311Z,9.55
2022-12-05T14:40:53.051Z,10.02
2022-12-05T14:43:23.747Z,10.98
2022-12-05T14:46:00.563Z,9.27
2022-12-05T14:48:34.770Z,10.65
2022-12-05T14:51:04.644Z,9.73
2022-12-05T14:53:42.351Z,9.70
2022-12-05T14:56:18.952Z,10.50
2022-12-05T14:58:52.183Z,9.43
2022-12-05T15:01:24.553Z,9.90
2022-12-05T15:04:11.654Z,9.60
2022-12-05T15:06:47.776Z,9.40
2022-12-05T15:09:38.973Z,9.00
2022-12-05T15:14:42.643Z,8.52
2022-12-05T15:17:13.113Z,9.82
2022-12-05T15:19:50.859Z,8.75
2022-12-05T15:22:49.240Z,9.20
2022-12-05T15:25:26.996Z,9.13
2022-12-05T15:28:11.780Z,9.32
2022-12-05T15:30:46.229Z,8.95
2022-12-05T15:33:18.659Z,11.65
2022-12-05T15:35:51.261Z,11.15
2022-12-05T15:38:27.324Z,9.88
2022-12-05T15:40:58.235Z,9.82
2022-12-05T15:43:32.921Z,9.93
2022-12-05T15:46:24.761Z,10.98
2022-12-05T15:48:55.225Z,10.55
2022-12-05T15:51:29.907Z,10.88
2022-12-05T15:54:01.385Z,10.77
2022-12-05T15:56:34.514Z,10.55
2022-12-05T15:59:05.841Z,10.95
2022-12-05T16:01:35.609Z,10.68
2022-12-05T16:04:08.067Z,10.48
2022-12-05T16:06:41.509Z,19.92
2022-12-05T16:09:12.031Z,11.73
2022-12-05T16:11:56.569Z,11.25
2022-12-05T16:17:17.102Z,13.25
2022-12-05T16:19:46.898Z,11.80
2022-12-05T16:22:25.218Z,11.63
2022-12-05T16:25:00.443Z,12.65
2022-12-05T16:27:31.597Z,12.13
2022-12-05T16:32:44.159Z,11.55
2022-12-05T16:35:30.187Z,12.35
2022-12-05T16:38:15.633Z,12.48
2022-12-05T16:40:54.031Z,12.98
2022-12-05T16:43:27.695Z,12.98
2022-12-05T16:45:58.752Z,12.93
2022-12-05T16:48:29.324Z,13.25
2022-12-05T16:51:19.257Z,13.27
2022-12-05T16:53:52.158Z,13.50
2022-12-05T16:56:23.557Z,13.70
2022-12-05T16:58:57.388Z,13.32
2022-12-05T17:01:34.334Z,13.05
2022-12-05T17:04:18.545Z,13.38
2022-12-05T17:06:48.298Z,13.40
2022-12-05T17:09:20.687Z,12.93
2022-12-05T17:11:50.670Z,14.10
2022-12-05T17:14:20.485Z,14.07
2022-12-05T17:17:08.828Z,13.43
2022-12-05T17:20:04.293Z,16.00
2022-12-05T17:22:37.250Z,15.40
2022-12-05T17:25:31.850Z,14.73
2022-12-05T17:28:01.971Z,14.57
2022-12-05T17:30:34.383Z,13.47
2022-12-05T17:33:09.908Z,14.80
2022-12-05T17:36:02.930Z,15.55
2022-12-05T17:38:48.224Z,15.70
2022-12-05T17:41:30.548Z,15.43
2022-12-05T17:44:23.161Z,16.67
2022-12-05T17:46:54.981Z,16.20
2022-12-05T17:49:35.393Z,16.58
2022-12-05T17:52:22.076Z,16.02
2022-12-05T17:54:52.618Z,16.08
2022-12-05T17:57:28.382Z,15.88
2022-12-05T18:00:06.841Z,15.70
2022-12-05T18:03:04.616Z,14.80
2022-12-05T18:06:32.636Z,16.05
2022-12-05T18:13:32.021Z,15.15
2022-12-05T18:17:11.732Z,14.52
2022-12-05T18:19:50.889Z,14.38
2022-12-05T18:22:35.601Z,23.13
2022-12-05T18:25:44.391Z,15.55
2022-12-05T18:28:29.512Z,14.60
2022-12-05T18:31:09.892Z,14.15
2022-12-05T18:33:49.930Z,13.60
2022-12-05T18:39:26.263Z,14.20
2022-12-05T18:42:11.739Z,14.93
2022-12-05T18:44:49.103Z,15.68
2022-12-05T18:47:29.610Z,23.95
2022-12-05T18:50:00.611Z,19.80
2022-12-05T18:52:37.021Z,18.00
2022-12-05T18:55:17.256Z,14.90
2022-12-05T18:58:00.775Z,14.45
2022-12-05T19:00:33.044Z,15.40
2022-12-05T19:03:07.950Z,14.55
2022-12-05T19:05:43.386Z,15.20
2022-12-05T19:08:27.549Z,20.63
2022-12-05T19:11:47.014Z,20.30
2022-12-05T19:14:38.540Z,21.35
2022-12-05T19:17:11.369Z,18.30
2022-12-05T19:19:42.696Z,16.98
2022-12-05T19:22:13.115Z,19.35
2022-12-05T19:24:43.647Z,19.30
2022-12-05T19:27:20.470Z,17.73
2022-12-05T19:29:57.378Z,18.00
2022-12-05T19:32:30.012Z,20.15
2022-12-05T19:35:00.251Z,19.02
2022-12-05T19:37:31.098Z,20.95
2022-12-05T19:40:03.423Z,20.65
2022-12-05T19:42:38.328Z,24.17
2022-12-05T19:45:12.247Z,22.67
2022-12-05T19:47:47.220Z,21.65
2022-12-05T19:50:17.029Z,26.02
2022-12-05T19:52:46.850Z,19.40
2022-12-05T19:55:16.699Z,19.33
2022-12-05T19:57:48.927Z,16.60
2022-12-05T20:00:20.011Z,17.92
2022-12-05T20:05:21.874Z,16.55
2022-12-05T20:07:51.691Z,15.88
2022-12-05T20:10:21.544Z,15.90
2022-12-05T20:12:51.205Z,15.00
2022-12-05T20:15:21.890Z,15.15
2022-12-05T20:17:55.274Z,14.77
2022-12-05T20:20:28.137Z,10.60
2022-12-05T20:22:57.784Z,9.85
2022-12-05T20:25:30.967Z,8.98
2022-12-05T20:28:00.621Z,8.52
2022-12-05T20:30:35.840Z,8.02
2022-12-05T20:33:08.179Z,8.13
2022-12-05T20:35:39.023Z,8.75
2022-12-05T20:38:09.094Z,7.82
2022-12-05T20:40:47.678Z,7.10
2022-12-05T20:43:20.264Z,7.03
2022-12-05T20:46:34.846Z,5.57
2022-12-05T20:53:00.012Z,4.45
2022-12-05T20:55:31.221Z,3.28
2022-12-05T20:58:04.929Z,3.50
2022-12-05T21:00:35.587Z,3.60
2022-12-05T21:03:26.943Z,3.35
2022-12-05T21:12:24.785Z,3.60
2022-12-05T21:14:55.391Z,4.10
2022-12-05T21:17:39.443Z,4.15
2022-12-05T21:20:13.695Z,4.05
2022-12-05T21:22:44.085Z,2.78
2022-12-05T21:25:13.744Z,2.58
2022-12-05T21:27:46.081Z,2.80
2022-12-05T21:30:17.902Z,2.60
2022-12-05T21:32:48.216Z,2.50
2022-12-05T21:35:24.599Z,2.65
2022-12-05T21:38:01.531Z,2.70
2022-12-05T21:40:31.632Z,2.60
2022-12-05T21:43:04.186Z,2.70
2022-12-05T21:45:41.581Z,2.83
2022-12-05T21:48:12.932Z,2.60
2022-12-05T21:50:42.603Z,2.83
2022-12-05T21:53:14.007Z,2.65
2022-12-05T21:55:44.583Z,2.72
2022-12-05T21:58:17.159Z,2.63
2022-12-05T22:00:47.376Z,2.72
2022-12-05T22:03:17.759Z,2.70
2022-12-05T22:05:48.780Z,2.80
2022-12-05T22:08:18.674Z,2.60
2022-12-05T22:10:49.909Z,2.70
2022-12-05T22:13:22.656Z,2.72
2022-12-05T22:15:52.900Z,2.90
2022-12-05T22:18:23.205Z,3.10
2022-12-05T22:20:58.537Z,3.25
2022-12-05T22:23:28.684Z,2.97
2022-12-05T22:26:00.340Z,3.07
2022-12-05T22:28:33.090Z,3.05
2022-12-05T22:31:04.268Z,2.80
2022-12-05T22:33:35.984Z,2.75
2022-12-05T22:36:06.472Z,2.72
2022-12-05T22:38:37.493Z,3.03
2022-12-05T22:43:41.368Z,3.38
2022-12-05T22:46:11.951Z,3.38
2022-12-05T22:48:41.747Z,3.28
2022-12-05T22:51:11.705Z,3.20
2022-12-05T22:53:41.411Z,3.00
2022-12-05T22:56:12.453Z,3.15
2022-12-05T23:01:14.688Z,3.10
2022-12-05T23:03:44.874Z,3.30
2022-12-05T23:06:14.986Z,3.03
2022-12-05T23:08:45.046Z,3.38
2022-12-05T23:11:16.099Z,3.38
2022-12-05T23:16:21.414Z,3.47
2022-12-05T23:18:51.612Z,3.00
2022-12-05T23:21:23.658Z,3.28
2022-12-05T23:23:54.488Z,3.42
2022-12-05T23:26:24.980Z,3.63
2022-12-05T23:28:57.289Z,4.40
2022-12-05T23:31:27.054Z,3.60
2022-12-05T23:34:01.440Z,3.47
2022-12-05T23:36:32.924Z,3.38
2022-12-05T23:39:02.751Z,3.25
2022-12-05T23:41:32.513Z,3.28
2022-12-05T23:44:04.939Z,3.50
2022-12-05T23:46:34.640Z,3.15
2022-12-05T23:49:04.326Z,3.35
2022-12-05T23:51:34.116Z,3.40
2022-12-05T23:54:04.230Z,3.40
2022-12-05T23:56:34.931Z,3.30
2022-12-05T23:59:08.547Z,3.20
